Metar Report
Metar
METAR KVGC 170456Z AUTO 00000KT 7SM CLR 08/08 A3011 A02 3641
METAR KVGC 170356Z AUTO 00000KT 7SM CLR 09/08 A3012 A02 3640
METAR KVGC 170256Z AUTO 00000KT 10SM CLR 11/09 A3011 A02 3639
METAR KVGC 170156Z AUTO 00000KT 10SM CLR 11/09 A3010 A02 3638
METAR KVGC 170056Z AUTO 00000KT 10SM CLR 13/11 A3009 A02 3637
METAR KVGC 162356Z AUTO 34003KT 10SM CLR 18/11 A3007 A02 3636
METAR KVGC 162256Z AUTO 34004KT 10SM CLR 21/11 A3007 A02 3635
METAR KVGC 162156Z AUTO 35005KT 10SM CLR 22/12 A3006 A02 3634
METAR KVGC 162056Z AUTO 34006KT 10SM CLR 23/12 A3006 A02 3633
METAR KVGC 161956Z AUTO 35009G14KT 10SM CLR 24/12 A3005 A02 3632
METAR KVGC 161856Z AUTO 36008G15KT 10SM BKN040 BKN060 23/13 A3005 A02 3631
METAR KVGC 161756Z AUTO 36010G14KT 10SM SCT036 SCT049 SCT055 24/14 A3006 A02 3630
METAR KVGC 161656Z AUTO 36007KT 10SM SCT035 23/15 A3005 A02 3629
METAR KVGC 161556Z AUTO 36010KT 10SM SCT023 SCT034 BKN045 23/16 A3006 A02 3628
METAR KVGC 161456Z AUTO 00000KT 10SM SCT021 BKN046 OVC055 20/16 A3006 A02 3627
METAR KVGC 161356Z AUTO 35003KT 10SM SCT010 BKN031 OVC050 19/17 A3006 A02 3626
METAR KVGC 161256Z AUTO 00000KT 10SM BKN014 BKN025 OVC043 18/17 A3005 A02 3625
METAR KVGC 161156Z AUTO 00000KT 7SM BKN011 BKN019 OVC026 16/16 A3004 A02 3624
METAR KVGC 161056Z AUTO 00000KT 5SM SCT001 OVC009 16/15 A3002 A02 3623
METAR KVGC 160956Z AUTO 00000KT 2 1/2SM SCT001 OVC011 15/14 A3002 A02 3622
METAR KVGC 160856Z AUTO 00000KT 1 1/2SM OVC001 16/14 A3000 A02 3621
METAR KVGC 160756Z AUTO 00000KT 1/4SM OVC001 15/14 A2998 A02 3620
METAR KVGC 160656Z AUTO 00000KT 1/4SM OVC001 14/14 A2997 A02 3619
METAR KVGC 160556Z AUTO 00000KT 1/2SM OVC001 14/14 A2997 A02 3618
METAR KVGC 160456Z AUTO 00000KT 4SM OVC001 15/14 A2997 A02 3617
METAR KVGC 160356Z AUTO 00000KT 4SM SCT003 14/14 A2996 A02 3616
METAR KVGC 160256Z AUTO 00000KT 4SM CLR 15/14 A2994 A02 3615
METAR KVGC 160156Z AUTO 00000KT 7SM CLR 16/14 A2994 A02 3614
METAR KVGC 160056Z AUTO 00000KT 10SM CLR 17/16 A2993 A02 3613
METAR KVGC 152356Z AUTO 00000KT 10SM BKN110 21/17 A2992 A02 3612
METAR KVGC 152256Z AUTO 00000KT 10SM BKN100 OVC110 22/16 A2992 A02 3611
METAR KVGC 152156Z AUTO 00000KT 10SM SCT110 23/16 A2989 A02 3610
METAR KVGC 152056Z AUTO 35007KT 330V030 10SM SCT047 SCT060 SCT120 24/17 A2988 A02 3609
METAR KVGC 151956Z AUTO 00000KT 10SM BKN050 BKN065 OVC090 26/15 A2988 A02 3608
METAR KVGC 151856Z AUTO 34003KT 7SM SCT055 SCT075 SCT095 26/14 A2988 A02 3607
METAR KVGC 151756Z AUTO 36006KT 10SM SCT049 SCT060 BKN080 26/14 A2989 A02 3606
METAR KVGC 151656Z AUTO 00000KT 10SM SCT037 BKN044 BKN050 26/13 A2989 A02 3605
METAR KVGC 151556Z AUTO 17004KT 10SM BKN032 BKN043 BKN055 25/16 A2990 A02 3604
METAR KVGC 151456Z AUTO 20005KT 10SM SCT030 23/17 A2992 A02 3603
METAR KVGC 151356Z AUTO 21005KT 10SM OVC019 22/16 A2992 A02 3602
METAR KVGC 151256Z AUTO 18003KT 10SM BKN015 21/17 A2992 A02 3601
METAR KVGC 151156Z AUTO 17003KT 10SM CLR 19/16 A2992 A02 3600
METAR KVGC 151056Z AUTO 00000KT 10SM SCT017 SCT060 BKN110 18/15 A2992 A02 3599
METAR KVGC 150956Z AUTO 14003KT 10SM CLR 17/15 A2991 A02 3598
METAR KVGC 150856Z AUTO 18004KT 10SM SCT043 18/15 A2991 A02 3597
METAR KVGC 150756Z AUTO 17005KT 10SM SCT047 SCT075 OVC120 18/15 A2991 A02 3596
METAR KVGC 150656Z AUTO 15004KT 10SM SCT043 BKN075 19/14 A2992 A02 3595
METAR KVGC 150556Z AUTO 16005KT 10SM OVC075 19/14 A2992 A02 3594
METAR KVGC 150456Z AUTO 16006KT 10SM OVC090 18/14 A2993 A02 3593
METAR KVGC 150356Z AUTO 16006KT 10SM SCT075 BKN090 18/14 A2993 A02 3592
METAR KVGC 150256Z AUTO 14003KT 10SM BKN070 BKN085 18/14 A2994 A02 3591
METAR KVGC 150156Z AUTO 00000KT 10SM BKN075 OVC090 17/14 A2995 A02 3590
METAR KVGC 150056Z AUTO 14004KT 10SM CLR 18/13 A2996 A02 3589
METAR KVGC 142356Z AUTO 16003KT 10SM CLR 20/14 A2995 A02 3588
METAR KVGC 142256Z AUTO 18005KT 10SM CLR 23/13 A2995 A02 3587
METAR KVGC 142156Z AUTO 17005KT 10SM CLR 25/12 A2996 A02 3586
METAR KVGC 142056Z AUTO 19005KT 10SM SCT050 SCT070 25/13 A2999 A02 3585
METAR KVGC 141956Z AUTO 17004KT 10SM BKN050 BKN070 26/13 A3000 A02 3584
METAR KVGC 141856Z AUTO 23004KT 10SM SCT048 SCT055 25/12 A3002 A02 3583
METAR KVGC 141756Z AUTO 00000KT 10SM CLR 25/13 A3003 A02 3582
METAR KVGC 141656Z AUTO 16004KT 10SM CLR 24/13 A3005 A02 3581
METAR KVGC 141556Z AUTO 18004KT 10SM CLR 22/12 A3005 A02 3580
METAR KVGC 141456Z AUTO 00000KT 10SM CLR 21/13 A3007 A02 3579
METAR KVGC 141356Z AUTO 00000KT 10SM CLR 19/14 A3008 A02 3578
METAR KVGC 141256Z AUTO 14003KT 10SM CLR 16/13 A3008 A02 3577
METAR KVGC 141156Z AUTO 00000KT 10SM SCT002 13/12 A3010 A02 3576
METAR KVGC 141056Z AUTO 00000KT 7SM BKN002 11/10 A3010 A02 3575
METAR KVGC 140956Z AUTO 00000KT 4SM OVC002 11/10 A3009 A02 3574
METAR KVGC 140856Z AUTO 00000KT 7SM CLR 11/10 A3008 A02 3573
METAR KVGC 140756Z AUTO 00000KT 7SM CLR 11/11 A3008 A02 3572
METAR KVGC 140656Z AUTO 00000KT 7SM SCT002 11/11 A3008 A02 3571
METAR KVGC 140556Z AUTO 00000KT 10SM CLR 11/10 A3008 A02 3570
METAR KVGC 140456Z AUTO 00000KT 7SM CLR 11/11 A3007 A02 3569
METAR KVGC 140356Z AUTO 00000KT 7SM CLR 12/11 A3008 A02 3568
METAR KVGC 140256Z AUTO 00000KT 10SM CLR 12/11 A3008 A02 3567
METAR KVGC 140156Z AUTO 00000KT 10SM CLR 13/11 A3007 A02 3566
METAR KVGC 140056Z AUTO 00000KT 10SM CLR 14/12 A3005 A02 3565
METAR KVGC 132356Z AUTO 00000KT 10SM CLR 18/13 A3005 A02 3564
METAR KVGC 132256Z AUTO 34004KT 10SM CLR 22/12 A3005 A02 3563
METAR KVGC 132156Z AUTO 35005KT 10SM SCT046 23/12 A3004 A02 3562
METAR KVGC 132056Z AUTO 31005KT 10SM CLR 23/11 A3004 A02 3561
METAR KVGC 131956Z AUTO 31005KT 10SM SCT050 SCT065 24/11 A3003 A02 3560
METAR KVGC 131856Z AUTO 36005KT 10SM SCT044 23/11 A3002 A02 3559
METAR KVGC 131756Z AUTO 35005KT 10SM SCT042 23/12 A3003 A02 3558
METAR KVGC 131656Z AUTO 01005KT 10SM SCT035 23/12 A3003 A02 3557
METAR KVGC 131556Z AUTO 01008KT 10SM SCT030 SCT034 SCT040 22/14 A3003 A02 3556
METAR KVGC 131456Z AUTO 36005KT 10SM SCT023 SCT032 21/14 A3002 A02 3555
METAR KVGC 131356Z AUTO 01006KT 10SM SCT019 SCT039 19/14 A3000 A02 3554
METAR KVGC 131256Z AUTO 35005KT 10SM BKN019 BKN023 BKN030 18/16 A2999 A02 3553
METAR KVGC 131156Z AUTO 35003KT 10SM BKN012 BKN020 OVC043 17/16 A2998 A02 3552
METAR KVGC 131056Z AUTO 00000KT 7SM BKN013 OVC021 16/14 A2997 A02 P0001 3551
METAR KVGC 130956Z AUTO 00000KT 5SM BKN013 OVC018 15/14 A2994 A02 3550
METAR KVGC 130856Z AUTO 00000KT 1 3/4SM BKN015 BKN030 14/13 A2993 A02 3549
METAR KVGC 130756Z AUTO 00000KT 5SM BKN023 BKN027 15/14 A2992 A02 3548
METAR KVGC 130656Z AUTO 00000KT 4SM OVC016 16/14 A2992 A02 3547
METAR KVGC 130556Z AUTO 00000KT 1/4SM OVC002 15/14 A2991 A02 3546
METAR KVGC 130456Z AUTO 00000KT M1/4SM OVC002 16/15 A2991 A02 3545
METAR KVGC 130356Z AUTO 12003KT 1/2SM OVC002 15/14 A2990 A02 3544
METAR KVGC 130256Z AUTO 00000KT 4SM SCT032 16/15 A2991 A02 3543
METAR KVGC 130156Z AUTO 00000KT 1 1/2SM VV007 16/16 A2990 A02 3542
METAR KVGC 130056Z AUTO 00000KT 5SM CLR 17/16 A2989 A02 3541
METAR KVGC 122356Z AUTO 00000KT 10SM SCT070 SCT090 19/17 A2987 A02 3540
METAR KVGC 122256Z AUTO 16003KT 10SM SCT070 BKN090 20/17 A2987 A02 P0001 3539
METAR KVGC 122156Z AUTO 00000KT 10SM SCT070 SCT110 20/16 A2988 A02 3538
METAR KVGC 122056Z AUTO 03003KT 10SM SCT028 BKN037 OVC110 21/15 A2988 A02 3537
METAR KVGC 121956Z AUTO 17007KT 10SM SCT029 SCT041 BKN110 23/17 A2985 A02 3536
METAR KVGC 121856Z AUTO 17008KT 10SM SCT110 25/17 A2986 A02 3535
METAR KVGC 121756Z AUTO 19009G14KT 10SM SCT070 SCT120 27/17 A2988 A02 3534
METAR KVGC 121656Z AUTO 00000KT 10SM SCT047 SCT060 BKN080 24/16 A2989 A02 3533
METAR KVGC 121556Z AUTO 19003KT 10SM BKN032 BKN038 OVC060 25/16 A2990 A02 3532
METAR KVGC 121456Z AUTO 18004KT 10SM SCT022 SCT028 BKN034 24/17 A2991 A02 3531
METAR KVGC 121356Z AUTO 21005KT 10SM SCT024 23/17 A2992 A02 3530
METAR KVGC 121256Z AUTO 00000KT 10SM OVC018 21/17 A2992 A02 3529
METAR KVGC 121156Z AUTO 17005KT 10SM BKN016 BKN095 21/17 A2993 A02 3528
METAR KVGC 121056Z AUTO 16003KT 10SM OVC016 19/17 A2993 A02 3527
METAR KVGC 120956Z AUTO 16004KT 10SM BKN016 18/16 A2992 A02 3526
METAR KVGC 120856Z AUTO 14003KT 10SM OVC016 18/16 A2992 A02 3525
METAR KVGC 120756Z AUTO 00000KT 10SM BKN017 18/17 A2994 A02 3524
METAR KVGC 120656Z AUTO 14005KT 10SM BKN017 18/16 A2995 A02 3523
METAR KVGC 120556Z AUTO 18004KT 10SM SCT017 18/16 A2997 A02 3522
METAR KVGC 120456Z AUTO 18005KT 10SM CLR 18/16 A2996 A02 3521